Time;durP1;ratioP1;P1;durP2;ratioP2;P2;SDS_P1;SDS_P2;PMS_P1;PMS_P2;Temp;Humidity;BMP_temperature;BMP_pressure;BME280_temperature;BME280_humidity;BME280_pressure;Samples;Min_cycle;Max_cycle;Signal;HPM_P1;HPM_P2
2021/12/21 00:02:16;;;;;;;7.07;6.38;;;;;;;-0.74;100.00;100473.16;4970481;28;20031;-79
2021/12/21 00:04:41;;;;;;;6.47;5.85;;;;;;;-0.74;100.00;100480.13;4972381;28;20484;-73
2021/12/21 00:07:07;;;;;;;6.80;6.05;;;;;;;-0.73;100.00;100484.44;4967215;28;20035;-78
2021/12/21 00:09:32;;;;;;;6.22;5.60;;;;;;;-0.77;100.00;100488.16;4967268;28;20125;-75
2021/12/21 00:12:01;;;;;;;7.10;6.35;;;;;;;-0.80;100.00;100501.41;4966598;28;20027;-74
2021/12/21 00:14:47;;;;;;;8.30;6.00;;;;;;;-0.75;100.00;100510.56;4971821;28;20039;-75
2021/12/21 00:20:06;;;;;;;6.38;5.75;;;;;;;-0.86;100.00;100518.25;4972078;28;20039;-82
2021/12/21 00:25:22;;;;;;;4.57;4.28;;;;;;;-0.84;96.77;100524.19;4973414;28;20105;-78
2021/12/21 00:27:51;;;;;;;5.75;4.68;;;;;;;-0.94;95.35;100529.19;4979015;28;20022;-81
2021/12/21 00:30:17;;;;;;;5.38;4.97;;;;;;;-0.93;95.68;100527.41;4967009;28;20048;-75
2021/12/21 00:32:43;;;;;;;4.68;4.38;;;;;;;-1.01;95.51;100522.72;4968071;28;20544;-78
2021/12/21 00:35:09;;;;;;;7.07;5.43;;;;;;;-1.03;95.73;100528.94;4967467;28;20046;-77
2021/12/21 00:37:38;;;;;;;4.93;4.63;;;;;;;-1.07;94.84;100536.13;4969915;28;20023;-77
2021/12/21 00:40:05;;;;;;;4.80;4.50;;;;;;;-1.05;92.72;100542.06;4975472;28;20046;-73
2021/12/21 00:42:30;;;;;;;5.70;5.18;;;;;;;-1.06;91.31;100550.81;4970747;28;20026;-79
2021/12/21 00:44:56;;;;;;;4.45;4.25;;;;;;;-1.12;89.97;100551.19;4975680;28;20035;-72
2021/12/21 00:47:21;;;;;;;4.53;4.18;;;;;;;-1.13;88.48;100568.59;4959118;28;20031;-73
2021/12/21 00:49:57;;;;;;;5.10;4.72;;;;;;;-1.18;87.82;100557.63;4975671;28;20041;-73
2021/12/21 00:52:23;;;;;;;4.35;4.13;;;;;;;-1.14;87.34;100563.50;4970702;28;20047;-77
2021/12/21 00:54:49;;;;;;;4.57;4.28;;;;;;;-1.24;86.67;100565.03;4975610;28;20059;-74
2021/12/21 00:57:14;;;;;;;4.68;4.22;;;;;;;-1.22;86.95;100574.41;4975293;28;20111;-76
2021/12/21 00:59:41;;;;;;;4.97;4.55;;;;;;;-1.25;87.06;100573.75;4974366;28;20094;-78
2021/12/21 01:02:07;;;;;;;4.72;4.40;;;;;;;-1.27;86.49;100568.63;4975405;28;20030;-78
2021/12/21 01:04:38;;;;;;;4.88;4.57;;;;;;;-1.35;86.37;100583.06;4986680;28;20035;-79
2021/12/21 01:07:21;;;;;;;5.25;4.55;;;;;;;-1.34;86.95;100566.53;4966765;28;20110;-74
2021/12/21 01:15:58;;;;;;;9.40;5.15;;;;;;;-1.68;94.87;100594.66;4971728;28;20043;-81
2021/12/21 01:18:04;;;;;;;4.50;4.25;;;;;;;-1.79;96.53;100607.47;4972316;28;20053;-80
2021/12/21 01:20:43;;;;;;;6.53;5.18;;;;;;;-1.91;92.84;100596.06;4974118;28;20166;-77
2021/12/21 01:31:02;;;;;;;6.70;5.43;;;;;;;-2.21;83.27;100603.94;4975693;28;20511;-75
2021/12/21 01:36:49;;;;;;;4.50;4.25;;;;;;;-2.34;78.66;100611.66;4971167;28;20039;-76
2021/12/21 01:39:47;;;;;;;4.28;4.07;;;;;;;-2.42;75.36;100620.78;4959373;28;20118;-76
2021/12/21 01:42:14;;;;;;;4.28;3.97;;;;;;;-2.48;74.32;100632.41;4976393;28;20503;-75
2021/12/21 01:49:53;;;;;;;3.65;3.45;;;;;;;-2.66;74.81;100647.25;4976380;28;20455;-76
2021/12/21 01:52:22;;;;;;;4.80;4.40;;;;;;;-2.71;74.74;100638.06;4977356;28;20129;-74
2021/12/21 01:54:49;;;;;;;4.38;4.13;;;;;;;-2.76;74.73;100659.09;4980233;28;20495;-76
2021/12/21 01:57:16;;;;;;;4.43;4.13;;;;;;;-2.80;74.70;100653.22;4973489;28;20050;-76
2021/12/21 01:59:44;;;;;;;10.80;4.70;;;;;;;-2.80;72.96;100652.38;4974319;28;20050;-76
2021/12/21 02:02:12;;;;;;;3.92;3.70;;;;;;;-2.83;72.36;100668.16;4974299;28;20086;-74
2021/12/21 02:04:39;;;;;;;4.45;4.22;;;;;;;-2.82;71.48;100670.66;4975990;28;20109;-82
2021/12/21 02:07:06;;;;;;;4.07;3.88;;;;;;;-2.91;70.88;100667.75;4972236;28;20039;-74
2021/12/21 02:09:38;;;;;;;5.43;3.85;;;;;;;-2.89;69.68;100678.88;4972643;28;20022;-73
2021/12/21 02:12:06;;;;;;;4.30;4.00;;;;;;;-3.01;67.24;100677.81;4974253;28;20027;-77
2021/12/21 02:14:33;;;;;;;4.18;3.97;;;;;;;-3.00;67.50;100686.44;4973640;28;20030;-78
2021/12/21 02:19:55;;;;;;;4.50;4.15;;;;;;;-3.19;64.08;100671.00;4974245;28;20038;-79
2021/12/21 02:22:23;;;;;;;9.48;3.80;;;;;;;-3.21;62.64;100683.25;4972561;28;20050;-80
2021/12/21 02:27:43;;;;;;;4.85;4.20;;;;;;;-3.36;64.14;100685.75;4971664;28;20049;-75
2021/12/21 02:30:14;;;;;;;3.85;3.65;;;;;;;-3.35;64.27;100705.56;4975155;28;20031;-78
2021/12/21 02:32:40;;;;;;;3.40;3.20;;;;;;;-3.41;65.06;100700.69;4986307;28;20045;-74
2021/12/21 02:35:06;;;;;;;5.32;4.88;;;;;;;-3.48;66.44;100701.94;4973724;28;20382;-76
2021/12/21 02:37:32;;;;;;;4.10;3.80;;;;;;;-3.56;67.25;100705.88;4976504;28;20405;-79
2021/12/21 02:39:57;;;;;;;4.40;4.10;;;;;;;-3.62;69.25;100712.19;4965873;28;20027;-77
2021/12/21 02:42:23;;;;;;;4.18;3.95;;;;;;;-3.67;70.23;100720.22;4973525;28;20485;-76
2021/12/21 02:44:54;;;;;;;4.75;4.28;;;;;;;-3.71;71.09;100710.94;4974796;28;20115;-73
2021/12/21 02:47:20;;;;;;;4.50;4.20;;;;;;;-3.78;72.31;100719.09;4972464;28;20034;-76
2021/12/21 02:49:46;;;;;;;4.82;4.15;;;;;;;-3.85;72.75;100715.97;4975007;28;20031;-73
2021/12/21 02:52:12;;;;;;;4.00;3.80;;;;;;;-3.89;73.55;100722.25;4963329;28;20061;-78
2021/12/21 02:54:37;;;;;;;4.30;4.00;;;;;;;-3.91;73.96;100737.84;4973525;28;20440;-79
2021/12/21 02:57:03;;;;;;;4.72;4.43;;;;;;;-3.92;74.14;100754.31;4973302;28;20046;-76
2021/12/21 02:59:30;;;;;;;4.97;4.57;;;;;;;-3.93;73.85;100757.00;4974494;28;20465;-75
2021/12/21 03:01:57;;;;;;;5.18;4.75;;;;;;;-3.92;73.62;100763.84;4973605;28;20033;-79
2021/12/21 03:04:23;;;;;;;5.35;4.95;;;;;;;-3.92;73.53;100767.28;4972534;28;20436;-75
2021/12/21 03:10:16;;;;;;;4.55;4.22;;;;;;;-3.98;74.60;100782.28;4967911;28;20041;-76
2021/12/21 03:14:48;;;;;;;3.67;3.47;;;;;;;-4.06;76.25;100774.91;4971880;28;20037;-76
2021/12/21 03:17:13;;;;;;;4.63;4.32;;;;;;;-4.09;77.22;100780.25;4974007;28;20023;-77
2021/12/21 03:19:39;;;;;;;6.22;5.43;;;;;;;-4.09;77.58;100784.59;4974341;28;20026;-79
2021/12/21 03:22:06;;;;;;;4.60;4.32;;;;;;;-4.11;77.88;100781.22;4971738;28;20376;-77
2021/12/21 03:24:32;;;;;;;6.63;4.65;;;;;;;-4.12;77.97;100784.72;4972855;28;20066;-81
2021/12/21 03:26:58;;;;;;;4.53;4.22;;;;;;;-4.21;77.95;100789.44;4973074;28;20469;-77
2021/12/21 03:29:24;;;;;;;5.10;4.60;;;;;;;-4.21;78.30;100797.19;4972693;28;20071;-75
2021/12/21 03:31:50;;;;;;;5.55;5.10;;;;;;;-4.21;78.92;100794.63;4972695;28;20055;-81
2021/12/21 03:34:15;;;;;;;4.63;4.40;;;;;;;-4.22;77.78;100797.28;4970802;28;20027;-77
2021/12/21 03:36:41;;;;;;;5.53;5.03;;;;;;;-4.26;77.34;100801.78;4960276;28;20034;-75
2021/12/21 03:39:10;;;;;;;4.65;4.35;;;;;;;-4.27;77.15;100799.25;4974146;28;20444;-76
2021/12/21 03:41:44;;;;;;;10.60;5.13;;;;;;;-4.26;76.81;100806.97;4974003;28;20033;-77
2021/12/21 03:44:10;;;;;;;;;;;;;;;-4.32;76.85;100794.31;4977183;28;20046;-77
2021/12/21 03:46:37;;;;;;;4.57;4.07;;;;;;;-4.32;76.31;100804.66;4972722;28;20348;-78
2021/12/21 03:49:20;;;;;;;8.68;4.70;;;;;;;-4.33;75.01;100797.81;4971986;28;20069;-80
2021/12/21 03:51:45;;;;;;;5.25;4.72;;;;;;;-4.37;75.00;100810.97;4971594;28;20349;-80
2021/12/21 03:54:10;;;;;;;5.05;4.65;;;;;;;-4.41;74.97;100807.66;4973321;28;20031;-76
2021/12/21 03:56:41;;;;;;;6.03;4.65;;;;;;;-4.39;75.71;100818.81;4973726;28;20027;-76
2021/12/21 03:59:07;;;;;;;4.82;4.53;;;;;;;-4.38;76.10;100819.66;4972992;28;20038;-79
2021/12/21 04:01:33;;;;;;;4.20;3.90;;;;;;;-4.47;74.91;100819.19;4971324;28;20118;-75
2021/12/21 04:03:58;;;;;;;5.85;5.38;;;;;;;-4.47;74.35;100828.69;4974381;28;20113;-73
2021/12/21 04:06:24;;;;;;;4.72;4.43;;;;;;;-4.49;74.26;100823.56;4978304;28;20038;-75
2021/12/21 04:08:50;;;;;;;4.63;4.22;;;;;;;-4.54;74.90;100825.56;4969010;28;20103;-76
2021/12/21 04:11:15;;;;;;;5.10;4.78;;;;;;;-4.53;74.66;100823.81;4958601;28;20019;-78
2021/12/21 04:13:47;;;;;;;5.25;4.95;;;;;;;-4.63;75.00;100820.78;4963161;28;20031;-75
2021/12/21 04:16:13;;;;;;;10.32;5.53;;;;;;;-4.64;74.51;100820.84;4961354;28;20679;-73
2021/12/21 04:18:39;;;;;;;5.35;4.95;;;;;;;-4.66;74.31;100820.94;4972279;28;20027;-76
2021/12/21 04:21:08;;;;;;;6.47;5.80;;;;;;;-4.73;74.67;100817.78;4969268;28;20041;-76
2021/12/21 04:23:34;;;;;;;5.05;4.65;;;;;;;-4.72;74.96;100823.78;4970785;28;20559;-73
2021/12/21 04:26:00;;;;;;;4.28;4.07;;;;;;;-4.70;75.19;100831.47;4971873;28;20030;-77
2021/12/21 04:28:26;;;;;;;7.82;5.38;;;;;;;-4.70;74.93;100844.44;4972198;28;20384;-77
2021/12/21 04:30:52;;;;;;;5.68;5.22;;;;;;;-4.73;74.79;100838.50;4969688;28;20034;-76
2021/12/21 04:33:17;;;;;;;4.80;4.50;;;;;;;-4.76;75.54;100841.22;4970502;28;20512;-77
2021/12/21 04:35:43;;;;;;;9.25;5.57;;;;;;;-4.70;76.37;100854.78;4969845;28;20039;-76
2021/12/21 04:38:22;;;;;;;5.20;4.68;;;;;;;-4.72;75.91;100853.09;4969523;28;20019;-76
2021/12/21 04:40:58;;;;;;;5.80;5.30;;;;;;;-4.67;75.87;100867.59;4971667;28;20049;-78
2021/12/21 04:43:23;;;;;;;4.97;4.68;;;;;;;-4.74;75.92;100865.28;4970887;28;20043;-77
2021/12/21 04:45:49;;;;;;;5.35;4.90;;;;;;;-4.72;76.52;100853.09;4971028;28;20548;-77
2021/12/21 04:48:15;;;;;;;3.90;3.70;;;;;;;-4.76;76.97;100859.34;4963746;28;20493;-79
2021/12/21 04:50:41;;;;;;;5.63;5.13;;;;;;;-4.76;76.52;100863.69;4969072;28;20054;-79
2021/12/21 04:53:07;;;;;;;4.80;4.50;;;;;;;-4.85;76.68;100857.16;4969638;28;20413;-77
2021/12/21 04:55:33;;;;;;;7.28;6.30;;;;;;;-4.77;76.70;100882.72;4969249;28;20516;-75
2021/12/21 04:57:59;;;;;;;9.00;5.72;;;;;;;-4.80;76.96;100888.00;4967444;28;20054;-76
2021/12/21 05:00:24;;;;;;;6.15;5.50;;;;;;;-4.81;77.17;100892.34;4969886;28;20031;-81
2021/12/21 05:02:50;;;;;;;6.38;5.30;;;;;;;-4.82;77.84;100902.75;4967034;28;20122;-75
2021/12/21 05:05:16;;;;;;;6.07;5.55;;;;;;;-4.82;77.89;100903.59;4961742;28;20077;-78
2021/12/21 05:07:47;;;;;;;19.05;5.25;;;;;;;-4.85;78.25;100893.38;4971087;28;20738;-78
2021/12/21 05:10:13;;;;;;;6.80;6.22;;;;;;;-4.90;78.38;100897.09;4969727;28;20397;-79
2021/12/21 05:12:39;;;;;;;5.57;4.93;;;;;;;-4.89;78.26;100906.53;4970278;28;20034;-81
2021/12/21 05:15:06;;;;;;;6.95;6.38;;;;;;;-4.92;78.17;100912.69;4972554;28;20034;-75
2021/12/21 05:17:32;;;;;;;6.85;6.32;;;;;;;-4.89;78.91;100909.94;4969440;28;20174;-77
2021/12/21 05:19:57;;;;;;;6.38;5.88;;;;;;;-4.89;79.15;100916.88;4972638;28;20102;-73
2021/12/21 05:22:24;;;;;;;6.50;6.03;;;;;;;-4.92;79.94;100912.69;4973073;28;20118;-71
2021/12/21 05:24:53;;;;;;;11.40;7.47;;;;;;;-4.93;80.49;100916.16;4974550;28;20469;-76
2021/12/21 05:27:19;;;;;;;6.15;5.55;;;;;;;-4.92;80.89;100917.88;4969719;28;20117;-73
2021/12/21 05:29:45;;;;;;;8.98;6.75;;;;;;;-4.87;80.72;100934.00;4974472;28;20019;-74
2021/12/21 05:32:10;;;;;;;10.00;5.78;;;;;;;-4.94;81.37;100937.75;4976309;28;20424;-75
2021/12/21 05:34:36;;;;;;;6.43;5.93;;;;;;;-4.91;81.40;100936.81;4974807;28;20468;-68
2021/12/21 05:37:05;;;;;;;7.38;5.75;;;;;;;-4.73;81.65;100943.75;4965454;28;20035;-71
2021/12/21 05:39:40;;;;;;;5.90;5.40;;;;;;;-4.09;81.39;100946.03;4973861;28;20130;-68
2021/12/21 05:42:06;;;;;;;6.72;6.13;;;;;;;-4.53;79.54;100950.66;4968487;28;20133;-69
2021/12/21 05:44:32;;;;;;;8.98;6.20;;;;;;;-4.00;78.60;100968.09;4971259;28;20109;-68
2021/12/21 05:46:58;;;;;;;12.85;6.13;;;;;;;-4.15;79.77;100953.25;4970593;28;20117;-69
2021/12/21 05:49:23;;;;;;;5.95;5.53;;;;;;;-4.56;78.35;100961.13;4970056;28;20392;-69
2021/12/21 05:51:50;;;;;;;6.68;5.80;;;;;;;-4.23;80.29;100975.16;4969877;28;20043;-69
2021/12/21 05:54:18;;;;;;;6.47;5.88;;;;;;;-4.35;78.02;100973.13;4969126;28;20055;-70
2021/12/21 05:56:44;;;;;;;6.65;6.05;;;;;;;-4.24;80.91;100973.50;4973499;28;20097;-70
2021/12/21 05:59:10;;;;;;;17.02;6.95;;;;;;;-4.57;79.53;100975.00;4973859;28;20046;-68
2021/12/21 06:01:36;;;;;;;7.80;7.10;;;;;;;-3.91;80.46;100981.47;4969161;28;20043;-70
2021/12/21 06:04:02;;;;;;;7.28;6.68;;;;;;;-4.42;79.26;100983.81;4966649;28;20030;-71
2021/12/21 06:06:31;;;;;;;6.95;6.35;;;;;;;-4.54;79.30;101001.59;4964044;28;20126;-70
2021/12/21 06:08:59;;;;;;;10.15;6.70;;;;;;;-4.60;79.39;100993.25;4971648;28;20038;-69
2021/12/21 06:11:25;;;;;;;7.43;6.07;;;;;;;-4.28;78.48;101007.38;4972612;28;20041;-70
2021/12/21 06:26:46;;;;;;;7.90;6.90;;;;;;;-2.54;70.01;101023.16;4972648;28;20023;-71
2021/12/21 06:29:12;;;;;;;8.73;6.93;;;;;;;-2.80;72.29;101028.84;4967753;28;20032;-70
2021/12/21 06:31:39;;;;;;;7.95;7.18;;;;;;;-3.34;74.66;101030.63;4971605;28;20038;-71
2021/12/21 06:34:05;;;;;;;8.63;6.57;;;;;;;-3.40;78.34;101028.34;4970529;28;20496;-71
2021/12/21 06:36:30;;;;;;;11.45;6.45;;;;;;;-3.49;80.72;101023.59;4971473;28;20041;-71
2021/12/21 06:38:56;;;;;;;6.15;5.63;;;;;;;-3.53;82.43;101032.41;4965298;28;20485;-71
2021/12/21 06:41:22;;;;;;;7.30;6.15;;;;;;;-3.65;82.68;101026.06;4973285;28;20044;-71
2021/12/21 06:43:48;;;;;;;6.60;6.00;;;;;;;-3.50;83.07;101037.47;4970616;28;20038;-72
2021/12/21 06:46:41;;;;;;;9.70;6.68;;;;;;;-3.57;83.70;101042.13;4972528;28;20027;-71
2021/12/21 06:51:51;;;;;;;7.00;6.30;;;;;;;-3.73;85.30;101046.34;4971204;28;20112;-72
2021/12/21 06:54:18;;;;;;;5.75;5.25;;;;;;;-3.70;87.11;101056.56;4972340;28;20043;-70
2021/12/21 06:56:43;;;;;;;8.32;6.25;;;;;;;-3.77;87.68;101052.56;4971290;28;20035;-70
2021/12/21 06:59:10;;;;;;;8.40;7.47;;;;;;;-3.73;87.73;101054.94;4970090;28;20046;-70
2021/12/21 07:01:37;;;;;;;9.75;8.07;;;;;;;-3.56;87.31;101050.72;4970087;28;20019;-70
2021/12/21 07:04:03;;;;;;;8.43;7.30;;;;;;;-3.58;87.11;101060.34;4969392;28;20062;-72
2021/12/21 07:06:29;;;;;;;7.65;6.90;;;;;;;-3.53;87.39;101053.16;4970434;28;20125;-70
2021/12/21 07:09:03;;;;;;;6.43;5.85;;;;;;;-3.34;85.98;101052.22;4968270;28;20110;-71
2021/12/21 07:11:42;;;;;;;9.60;7.55;;;;;;;-3.30;85.81;101057.28;4970532;28;20234;-71
2021/12/21 07:19:36;;;;;;;7.40;5.82;;;;;;;-2.35;75.63;101056.84;4969514;28;20034;-70
2021/12/21 07:22:03;;;;;;;12.40;6.45;;;;;;;-2.46;77.81;101061.75;4975312;28;20027;-71
2021/12/21 07:24:28;;;;;;;10.35;7.82;;;;;;;-2.59;77.62;101051.13;4981426;28;20111;-70
2021/12/21 07:26:54;;;;;;;8.20;6.95;;;;;;;-2.83;76.70;101058.41;4956989;28;20110;-71
2021/12/21 07:29:19;;;;;;;9.98;6.70;;;;;;;-2.84;75.10;101051.53;4966797;28;20027;-71
2021/12/21 07:31:46;;;;;;;8.48;6.90;;;;;;;-2.98;73.87;101060.91;4960781;28;20119;-71
2021/12/21 07:34:11;;;;;;;6.65;6.05;;;;;;;-2.68;73.92;101058.56;4970649;28;20062;-70
2021/12/21 07:36:37;;;;;;;5.88;5.28;;;;;;;-2.83;72.31;101057.56;4966404;28;20027;-70
2021/12/21 07:39:06;;;;;;;6.90;6.20;;;;;;;-2.87;72.25;101064.66;4963303;28;20030;-70
2021/12/21 07:41:33;;;;;;;6.35;5.55;;;;;;;-3.06;69.61;101056.94;4971223;28;20236;-71
2021/12/21 07:43:58;;;;;;;8.32;6.60;;;;;;;-2.90;68.40;101062.22;4966052;28;20027;-70
2021/12/21 07:46:24;;;;;;;6.35;5.82;;;;;;;-2.83;67.55;101062.75;4965440;28;20455;-71
2021/12/21 07:48:49;;;;;;;5.68;5.28;;;;;;;-2.70;66.52;101074.22;4965094;28;20027;-71
2021/12/21 07:51:15;;;;;;;5.93;5.25;;;;;;;-2.95;65.50;101056.41;4966361;28;20041;-71
2021/12/21 07:53:42;;;;;;;7.35;6.53;;;;;;;-2.79;64.45;101065.13;4972678;28;20037;-70
2021/12/21 07:56:08;;;;;;;10.43;7.55;;;;;;;-2.46;65.14;101064.34;4961048;28;20127;-71
2021/12/21 07:58:35;;;;;;;7.03;6.05;;;;;;;-2.35;63.12;101071.56;4959114;28;20031;-72
2021/12/21 08:01:04;;;;;;;11.15;7.47;;;;;;;-1.78;61.46;101065.06;4968592;28;20026;-74
2021/12/21 08:03:32;;;;;;;9.93;6.50;;;;;;;-2.10;60.42;101065.97;4962917;28;20132;-72
2021/12/21 08:05:59;;;;;;;7.72;6.25;;;;;;;-1.89;59.59;101069.19;4972714;28;20089;-75
2021/12/21 08:08:27;;;;;;;8.05;7.25;;;;;;;-1.90;59.06;101068.34;4961191;28;20388;-76
2021/12/21 08:11:08;;;;;;;6.07;5.57;;;;;;;-2.18;58.34;101071.56;4958375;28;20040;-73
2021/12/21 08:13:35;;;;;;;5.78;5.22;;;;;;;-2.25;57.71;101076.22;4965184;28;20535;-71
2021/12/21 08:16:00;;;;;;;7.38;5.68;;;;;;;-1.98;57.17;101073.13;4969635;28;20102;-73
2021/12/21 08:18:26;;;;;;;6.18;5.57;;;;;;;-1.94;56.92;101085.03;4973652;28;20023;-72
2021/12/21 08:20:52;;;;;;;10.77;5.85;;;;;;;-1.95;56.57;101081.59;4971239;28;20485;-72
2021/12/21 08:23:17;;;;;;;11.15;7.25;;;;;;;-1.96;56.13;101079.06;4962972;28;20039;-72
2021/12/21 08:25:43;;;;;;;7.82;5.53;;;;;;;-2.03;56.23;101081.16;4968723;28;20034;-72
2021/12/21 08:28:08;;;;;;;6.32;5.75;;;;;;;-2.10;56.79;101087.59;4966361;28;20034;-71
2021/12/21 08:30:34;;;;;;;7.28;6.43;;;;;;;-1.91;56.88;101090.03;4967402;28;20386;-72
2021/12/21 08:33:00;;;;;;;8.10;5.60;;;;;;;-2.17;56.02;101088.00;4966101;28;20122;-73
2021/12/21 08:35:27;;;;;;;6.43;5.93;;;;;;;-2.08;56.45;101088.34;4973772;28;20074;-73
2021/12/21 08:38:00;;;;;;;8.90;6.88;;;;;;;-2.07;56.06;101089.19;4964842;28;20070;-72
2021/12/21 08:40:26;;;;;;;6.75;6.25;;;;;;;-2.22;56.83;101088.22;4955127;28;20027;-74
2021/12/21 08:42:52;;;;;;;12.73;7.20;;;;;;;-2.12;57.71;101097.22;4962285;28;20034;-73
2021/12/21 08:45:18;;;;;;;9.93;7.57;;;;;;;-2.25;56.95;101098.78;4958592;28;20066;-70
2021/12/21 08:47:44;;;;;;;7.03;6.15;;;;;;;-2.06;55.18;101103.84;4971172;28;20026;-70
2021/12/21 08:50:12;;;;;;;8.13;6.93;;;;;;;-1.83;56.40;101113.06;4968655;28;20018;-73
2021/12/21 08:52:38;;;;;;;13.57;8.52;;;;;;;-1.86;54.78;101108.84;4973220;28;20038;-72
2021/12/21 08:55:06;;;;;;;14.48;6.97;;;;;;;-1.92;54.44;101100.53;4975968;28;20089;-74
2021/12/21 08:57:33;;;;;;;12.52;6.50;;;;;;;-2.07;55.65;101091.78;4975646;28;20503;-73
2021/12/21 08:59:58;;;;;;;7.47;6.20;;;;;;;-1.95;56.29;101088.53;4974566;28;20035;-74
2021/12/21 09:02:24;;;;;;;7.90;7.13;;;;;;;-2.13;56.33;101090.34;4974228;28;20114;-74
2021/12/21 09:04:49;;;;;;;11.50;6.43;;;;;;;-1.88;55.94;101096.88;4975541;28;20023;-74
2021/12/21 09:07:15;;;;;;;8.20;6.03;;;;;;;-1.42;55.20;101084.81;4975932;28;20476;-75
2021/12/21 09:09:40;;;;;;;7.85;7.03;;;;;;;-1.29;53.95;101083.22;4975848;28;20125;-74
2021/12/21 09:12:07;;;;;;;7.30;6.57;;;;;;;-1.59;55.08;101090.94;4974282;28;20057;-74
2021/12/21 09:14:32;;;;;;;5.80;5.30;;;;;;;-1.98;54.78;101089.56;4974284;28;20030;-75
2021/12/21 09:17:00;;;;;;;7.18;6.50;;;;;;;-1.89;55.38;101092.59;4974330;28;20034;-74
2021/12/21 09:19:28;;;;;;;8.32;6.53;;;;;;;-1.69;55.10;101087.13;4974600;28;20041;-75
2021/12/21 09:21:53;;;;;;;7.55;6.85;;;;;;;-2.18;56.16;101084.56;4975796;28;20027;-75
2021/12/21 09:24:19;;;;;;;28.60;6.90;;;;;;;-2.32;56.39;101087.84;4976048;28;20026;-74
2021/12/21 09:26:44;;;;;;;7.95;6.63;;;;;;;-2.33;57.01;101080.16;4974275;28;20050;-74
2021/12/21 09:29:10;;;;;;;13.75;7.47;;;;;;;-2.27;57.82;101079.84;4974339;28;20484;-74
2021/12/21 09:31:35;;;;;;;9.43;7.03;;;;;;;-2.40;57.32;101086.56;4974014;28;20477;-74
2021/12/21 09:34:02;;;;;;;5.28;4.93;;;;;;;-2.54;56.47;101075.13;4975900;28;20041;-74
2021/12/21 09:36:29;;;;;;;8.27;6.53;;;;;;;-2.22;57.52;101076.06;4975556;28;20037;-74
2021/12/21 09:38:55;;;;;;;7.03;6.43;;;;;;;-2.15;55.86;101086.16;4974281;28;20523;-74
2021/12/21 09:41:20;;;;;;;8.80;6.82;;;;;;;-2.39;55.36;101078.69;4973944;28;20103;-74
2021/12/21 09:43:46;;;;;;;17.27;10.63;;;;;;;-2.40;55.27;101079.63;4975486;28;20035;-74
2021/12/21 09:46:12;;;;;;;7.20;6.03;;;;;;;-2.30;55.28;101087.78;4973717;28;20389;-74
2021/12/21 09:48:38;;;;;;;7.43;6.78;;;;;;;-2.39;55.35;101081.28;4975256;28;20539;-74
2021/12/21 09:51:05;;;;;;;7.38;6.63;;;;;;;-2.56;55.10;101074.38;4976843;28;20046;-75
2021/12/21 09:53:32;;;;;;;8.82;6.75;;;;;;;-2.60;54.93;101088.41;4983870;28;20059;-73
2021/12/21 09:55:57;;;;;;;6.18;5.75;;;;;;;-2.68;55.77;101079.31;4957982;28;20047;-74
2021/12/21 09:58:23;;;;;;;8.23;5.57;;;;;;;-2.61;55.39;101068.56;4975447;28;20463;-74
2021/12/21 10:00:49;;;;;;;8.98;7.65;;;;;;;-2.53;55.79;101082.00;4971274;28;20035;-75
2021/12/21 10:03:15;;;;;;;7.65;6.88;;;;;;;-2.45;56.14;101081.59;4968221;28;20053;-75
2021/12/21 10:05:42;;;;;;;6.82;6.15;;;;;;;-2.61;56.16;101078.94;4966404;28;20085;-74
2021/12/21 10:08:19;;;;;;;5.88;5.47;;;;;;;-2.79;55.71;101067.72;4969230;28;20031;-74
2021/12/21 10:10:51;;;;;;;8.95;6.40;;;;;;;-2.80;56.26;101073.81;4972056;28;20027;-73
2021/12/21 10:13:22;;;;;;;6.65;6.03;;;;;;;-2.76;56.81;101064.13;4973121;28;20416;-73
2021/12/21 10:15:52;;;;;;;13.93;6.78;;;;;;;-2.77;57.53;101070.25;4972913;28;20029;-74
2021/12/21 10:18:30;;;;;;;9.18;6.68;;;;;;;-2.74;56.65;101074.44;4974196;28;20551;-73
2021/12/21 10:21:00;;;;;;;9.43;7.00;;;;;;;-2.58;56.66;101078.78;4971958;28;20082;-75
2021/12/21 10:23:28;;;;;;;15.50;7.00;;;;;;;-2.54;56.72;101074.28;4970611;28;20054;-74
2021/12/21 10:25:53;;;;;;;8.32;5.45;;;;;;;-2.69;56.17;101068.09;4972466;28;20086;-74
2021/12/21 10:28:25;;;;;;;6.20;5.63;;;;;;;-2.61;56.24;101058.16;4975001;28;20026;-74
2021/12/21 10:30:53;;;;;;;6.97;6.45;;;;;;;-2.67;55.07;101058.47;4961205;28;20485;-73
2021/12/21 10:33:20;;;;;;;10.98;6.43;;;;;;;-2.76;54.97;101045.97;4968407;28;20031;-75
2021/12/21 10:35:46;;;;;;;9.90;6.88;;;;;;;-2.70;54.46;101061.22;4967435;28;20038;-78
2021/12/21 10:38:23;;;;;;;23.35;6.10;;;;;;;-2.64;54.74;101065.28;4981581;28;20030;-78
2021/12/21 10:40:50;;;;;;;7.45;6.32;;;;;;;-2.60;54.54;101067.63;4977111;28;20026;-80
2021/12/21 10:43:15;;;;;;;9.05;7.90;;;;;;;-2.52;53.65;101067.25;4969002;28;20535;-75
2021/12/21 10:45:43;;;;;;;13.38;6.28;;;;;;;-2.39;54.48;101073.50;4973009;28;20035;-74
2021/12/21 10:48:15;;;;;;;12.35;7.43;;;;;;;-2.54;53.82;101077.72;4966866;28;20037;-78
2021/12/21 10:50:42;;;;;;;9.00;6.57;;;;;;;-2.44;53.60;101072.88;4970882;28;20057;-76
2021/12/21 10:53:23;;;;;;;8.85;7.47;;;;;;;-2.56;53.67;101076.13;4965961;28;20055;-80
2021/12/21 10:56:04;;;;;;;10.65;7.25;;;;;;;-2.42;53.51;101076.28;4973159;28;20125;-78
2021/12/21 10:58:30;;;;;;;8.50;6.85;;;;;;;-2.43;53.98;101068.53;4971170;28;20121;-80
2021/12/21 11:01:00;;;;;;;6.85;5.68;;;;;;;-2.43;53.98;101069.38;4973412;28;20113;-78
2021/12/21 11:03:38;;;;;;;10.25;7.45;;;;;;;-2.65;54.12;101061.81;4962420;28;20029;-76
2021/12/21 11:06:17;;;;;;;7.68;6.95;;;;;;;-2.49;54.98;101072.31;4967673;28;20072;-80
2021/12/21 11:08:48;;;;;;;11.48;6.60;;;;;;;-2.53;55.01;101058.63;4967716;28;20034;-75
2021/12/21 11:11:33;;;;;;;7.25;5.93;;;;;;;-2.64;55.91;101071.31;4973146;28;20425;-79
2021/12/21 11:14:08;;;;;;;8.43;6.47;;;;;;;-2.36;56.09;101072.50;4970363;28;20057;-77
2021/12/21 11:16:47;;;;;;;8.15;7.32;;;;;;;-2.38;56.52;101072.56;4972566;28;20029;-81
2021/12/21 11:19:15;;;;;;;8.00;6.78;;;;;;;-2.75;56.53;101071.00;4972342;28;20040;-76
2021/12/21 11:21:43;;;;;;;7.20;6.45;;;;;;;-2.60;55.88;101072.81;4972653;28;20388;-78
2021/12/21 11:24:11;;;;;;;6.55;5.60;;;;;;;-2.60;56.41;101069.41;4972930;28;20046;-80
2021/12/21 11:26:38;;;;;;;9.15;7.90;;;;;;;-2.47;55.75;101075.66;4973030;28;20041;-77
2021/12/21 11:29:10;;;;;;;7.82;6.10;;;;;;;-2.46;56.56;101073.88;4972991;28;20373;-80
2021/12/21 11:31:41;;;;;;;7.18;6.53;;;;;;;-2.60;56.89;101072.81;4972978;28;20043;-78
2021/12/21 11:34:13;;;;;;;10.15;6.68;;;;;;;-2.60;56.20;101057.25;4971119;28;20047;-80
2021/12/21 11:39:23;;;;;;;7.00;6.30;;;;;;;-2.55;56.55;101070.84;4973017;28;20182;-78
2021/12/21 11:41:50;;;;;;;10.23;7.53;;;;;;;-2.63;57.64;101070.41;4971657;28;20160;-78
2021/12/21 11:44:25;;;;;;;7.13;6.45;;;;;;;-2.53;57.33;101083.75;4971621;28;20489;-79
2021/12/21 11:46:58;;;;;;;7.85;6.88;;;;;;;-2.44;56.85;101077.25;4972569;28;20042;-78
2021/12/21 11:49:50;;;;;;;9.70;6.28;;;;;;;-2.19;56.61;101088.06;4973925;28;20053;-78
2021/12/21 11:52:23;;;;;;;8.48;6.63;;;;;;;-2.20;55.46;101094.19;4971762;28;20397;-77
2021/12/21 11:54:55;;;;;;;14.60;6.37;;;;;;;-2.14;54.44;101095.63;4972924;28;20393;-76
2021/12/21 11:57:43;;;;;;;6.20;5.70;;;;;;;-2.29;53.64;101073.84;4956364;28;20031;-79
2021/12/21 12:00:46;;;;;;;8.45;7.05;;;;;;;-2.34;52.92;101100.09;4967543;28;20105;-79
2021/12/21 12:03:14;;;;;;;13.73;5.68;;;;;;;-2.22;51.34;101096.00;4951316;28;20104;-77
2021/12/21 12:05:57;;;;;;;9.77;7.03;;;;;;;-2.23;50.17;101087.38;4972536;28;20092;-79
2021/12/21 12:08:26;;;;;;;6.15;5.63;;;;;;;-2.28;47.72;101096.31;4972013;28;20150;-77
2021/12/21 12:10:56;;;;;;;6.95;5.50;;;;;;;-2.03;47.15;101103.72;4970958;28;20496;-75
2021/12/21 12:13:40;;;;;;;7.45;6.68;;;;;;;-2.33;47.35;101099.19;4970371;28;20086;-80
2021/12/21 12:16:08;;;;;;;;;;;;;;;-2.42;48.31;101089.25;4967604;28;20035;-80
2021/12/21 12:18:42;;;;;;;6.85;5.85;;;;;;;-2.60;48.81;101101.41;4972444;28;19965;-78
2021/12/21 12:21:17;;;;;;;7.60;6.10;;;;;;;-2.54;49.02;101108.06;4971990;28;20023;-78
2021/12/21 12:23:53;;;;;;;9.60;8.13;;;;;;;-2.67;48.05;101112.16;4971999;28;20054;-77
2021/12/21 12:26:21;;;;;;;6.82;6.35;;;;;;;-2.60;47.94;101106.59;4968624;28;20034;-78
2021/12/21 12:28:47;;;;;;;8.68;5.40;;;;;;;-2.67;47.33;101106.97;4973709;28;20019;-80
2021/12/21 12:31:36;;;;;;;8.48;6.72;;;;;;;-2.71;48.79;101116.69;4976328;28;20046;-80
2021/12/21 12:34:03;;;;;;;7.78;6.97;;;;;;;-2.64;48.69;101120.66;4976174;28;20030;-79